sensor_id;sensor_type;location;lat;lon;timestamp;temperature;humidity
4356;DHT22;64374;51.482;7.408;2024-03-02T00:01:27;11.40;99.90
4356;DHT22;64374;51.482;7.408;2024-03-02T00:03:58;11.50;99.90
4356;DHT22;64374;51.482;7.408;2024-03-02T00:06:29;11.80;99.90
4356;DHT22;64374;51.482;7.408;2024-03-02T00:08:59;11.20;99.90
4356;DHT22;64374;51.482;7.408;2024-03-02T00:11:34;11.10;99.90
4356;DHT22;64374;51.482;7.408;2024-03-02T00:14:04;11.40;99.90
4356;DHT22;64374;51.482;7.408;2024-03-02T00:16:32;11.60;99.90
4356;DHT22;64374;51.482;7.408;2024-03-02T00:19:02;11.60;99.90
4356;DHT22;64374;51.482;7.408;2024-03-02T00:21:32;11.80;99.90
4356;DHT22;64374;51.482;7.408;2024-03-02T00:24:01;11.10;99.90
4356;DHT22;64374;51.482;7.408;2024-03-02T00:26:36;10.60;99.90
4356;DHT22;64374;51.482;7.408;2024-03-02T00:29:04;10.90;99.90
4356;DHT22;64374;51.482;7.408;2024-03-02T00:31:32;11.50;99.90
4356;DHT22;64374;51.482;7.408;2024-03-02T00:34:03;11.20;99.90
4356;DHT22;64374;51.482;7.408;2024-03-02T00:36:33;11.30;99.90
4356;DHT22;64374;51.482;7.408;2024-03-02T00:39:01;11.80;99.90
4356;DHT22;64374;51.482;7.408;2024-03-02T00:41:31;12.00;99.90
4356;DHT22;64374;51.482;7.408;2024-03-02T00:44:15;12.30;99.90
4356;DHT22;64374;51.482;7.408;2024-03-02T00:46:44;12.70;99.90
4356;DHT22;64374;51.482;7.408;2024-03-02T00:49:18;12.60;99.90
4356;DHT22;64374;51.482;7.408;2024-03-02T00:51:49;12.30;99.90
4356;DHT22;64374;51.482;7.408;2024-03-02T00:54:22;11.60;99.90
4356;DHT22;64374;51.482;7.408;2024-03-02T00:56:54;11.10;99.90
4356;DHT22;64374;51.482;7.408;2024-03-02T00:59:27;11.70;99.90
4356;DHT22;64374;51.482;7.408;2024-03-02T01:01:56;11.70;99.90
4356;DHT22;64374;51.482;7.408;2024-03-02T01:04:27;11.80;99.90
4356;DHT22;64374;51.482;7.408;2024-03-02T01:06:57;12.40;99.90
4356;DHT22;64374;51.482;7.408;2024-03-02T01:09:26;12.50;99.90
4356;DHT22;64374;51.482;7.408;2024-03-02T01:11:56;12.00;99.90
4356;DHT22;64374;51.482;7.408;2024-03-02T01:14:28;12.20;99.90
4356;DHT22;64374;51.482;7.408;2024-03-02T01:16:59;11.90;99.90
4356;DHT22;64374;51.482;7.408;2024-03-02T01:19:30;12.30;99.90
4356;DHT22;64374;51.482;7.408;2024-03-02T01:22:07;12.40;99.90
4356;DHT22;64374;51.482;7.408;2024-03-02T01:24:38;12.40;99.90
4356;DHT22;64374;51.482;7.408;2024-03-02T01:27:07;12.30;99.90
4356;DHT22;64374;51.482;7.408;2024-03-02T01:29:37;12.40;99.90
4356;DHT22;64374;51.482;7.408;2024-03-02T01:32:06;12.70;99.90
4356;DHT22;64374;51.482;7.408;2024-03-02T01:34:42;12.60;99.90
4356;DHT22;64374;51.482;7.408;2024-03-02T01:37:11;12.40;99.90
4356;DHT22;64374;51.482;7.408;2024-03-02T01:39:43;12.20;99.90
4356;DHT22;64374;51.482;7.408;2024-03-02T01:42:14;12.20;99.90
4356;DHT22;64374;51.482;7.408;2024-03-02T01:44:44;12.30;99.90
4356;DHT22;64374;51.482;7.408;2024-03-02T01:47:12;12.30;99.90
4356;DHT22;64374;51.482;7.408;2024-03-02T01:49:40;12.30;99.90
4356;DHT22;64374;51.482;7.408;2024-03-02T01:52:14;12.40;99.90
4356;DHT22;64374;51.482;7.408;2024-03-02T01:54:42;12.50;99.90
4356;DHT22;64374;51.482;7.408;2024-03-02T01:57:11;12.50;99.90
4356;DHT22;64374;51.482;7.408;2024-03-02T01:59:48;12.40;99.90
4356;DHT22;64374;51.482;7.408;2024-03-02T02:02:18;11.90;99.90
4356;DHT22;64374;51.482;7.408;2024-03-02T02:04:47;12.10;99.90
4356;DHT22;64374;51.482;7.408;2024-03-02T02:07:17;11.20;99.90
4356;DHT22;64374;51.482;7.408;2024-03-02T02:09:51;11.60;99.90
4356;DHT22;64374;51.482;7.408;2024-03-02T02:12:21;11.20;99.90
4356;DHT22;64374;51.482;7.408;2024-03-02T02:14:56;10.80;99.90
4356;DHT22;64374;51.482;7.408;2024-03-02T02:17:24;10.90;99.90
4356;DHT22;64374;51.482;7.408;2024-03-02T02:19:54;10.90;99.90
4356;DHT22;64374;51.482;7.408;2024-03-02T02:22:26;10.50;99.90
4356;DHT22;64374;51.482;7.408;2024-03-02T02:24:54;10.80;99.90
4356;DHT22;64374;51.482;7.408;2024-03-02T02:27:23;11.10;99.90
4356;DHT22;64374;51.482;7.408;2024-03-02T02:29:51;10.70;99.90
4356;DHT22;64374;51.482;7.408;2024-03-02T02:32:19;10.50;99.90
4356;DHT22;64374;51.482;7.408;2024-03-02T02:34:47;10.60;99.90
4356;DHT22;64374;51.482;7.408;2024-03-02T02:37:24;10.60;99.90
4356;DHT22;64374;51.482;7.408;2024-03-02T02:39:58;10.70;99.90
4356;DHT22;64374;51.482;7.408;2024-03-02T02:42:26;11.20;99.90
4356;DHT22;64374;51.482;7.408;2024-03-02T02:44:59;11.60;99.90
4356;DHT22;64374;51.482;7.408;2024-03-02T02:47:27;12.00;99.90
4356;DHT22;64374;51.482;7.408;2024-03-02T02:49:56;12.00;99.90
4356;DHT22;64374;51.482;7.408;2024-03-02T02:52:26;12.00;99.90
4356;DHT22;64374;51.482;7.408;2024-03-02T02:54:59;11.70;99.90
4356;DHT22;64374;51.482;7.408;2024-03-02T02:57:30;12.20;99.90
4356;DHT22;64374;51.482;7.408;2024-03-02T03:00:04;12.30;99.90
4356;DHT22;64374;51.482;7.408;2024-03-02T03:02:37;12.50;99.90
4356;DHT22;64374;51.482;7.408;2024-03-02T03:05:07;12.60;99.90
4356;DHT22;64374;51.482;7.408;2024-03-02T03:07:39;12.00;99.90
4356;DHT22;64374;51.482;7.408;2024-03-02T03:10:08;11.30;99.90
4356;DHT22;64374;51.482;7.408;2024-03-02T03:12:36;11.70;99.90
4356;DHT22;64374;51.482;7.408;2024-03-02T03:15:09;11.60;99.90
4356;DHT22;64374;51.482;7.408;2024-03-02T03:17:38;11.00;99.90
4356;DHT22;64374;51.482;7.408;2024-03-02T03:20:07;10.70;99.90
4356;DHT22;64374;51.482;7.408;2024-03-02T03:22:39;10.60;99.90
4356;DHT22;64374;51.482;7.408;2024-03-02T03:25:08;10.50;99.90
4356;DHT22;64374;51.482;7.408;2024-03-02T03:27:36;10.70;99.90
4356;DHT22;64374;51.482;7.408;2024-03-02T03:30:05;10.70;99.90
4356;DHT22;64374;51.482;7.408;2024-03-02T03:32:34;10.70;99.90
4356;DHT22;64374;51.482;7.408;2024-03-02T03:35:03;11.40;99.90
4356;DHT22;64374;51.482;7.408;2024-03-02T03:37:34;11.70;99.90
4356;DHT22;64374;51.482;7.408;2024-03-02T03:40:04;11.70;99.90
4356;DHT22;64374;51.482;7.408;2024-03-02T03:42:37;12.10;99.90
4356;DHT22;64374;51.482;7.408;2024-03-02T03:45:07;11.80;99.90
4356;DHT22;64374;51.482;7.408;2024-03-02T03:47:35;11.60;99.90
4356;DHT22;64374;51.482;7.408;2024-03-02T03:50:04;11.30;99.90
4356;DHT22;64374;51.482;7.408;2024-03-02T03:52:35;10.90;99.90
4356;DHT22;64374;51.482;7.408;2024-03-02T03:55:05;11.10;99.90
4356;DHT22;64374;51.482;7.408;2024-03-02T03:57:34;10.90;99.90
4356;DHT22;64374;51.482;7.408;2024-03-02T04:00:03;11.40;99.90
4356;DHT22;64374;51.482;7.408;2024-03-02T04:02:40;12.00;99.90
4356;DHT22;64374;51.482;7.408;2024-03-02T04:05:09;11.70;99.90
4356;DHT22;64374;51.482;7.408;2024-03-02T04:07:38;12.30;99.90
4356;DHT22;64374;51.482;7.408;2024-03-02T04:10:10;11.20;99.90
4356;DHT22;64374;51.482;7.408;2024-03-02T04:12:39;11.50;99.90
4356;DHT22;64374;51.482;7.408;2024-03-02T04:15:08;11.90;99.90
4356;DHT22;64374;51.482;7.408;2024-03-02T04:17:36;12.20;99.90
4356;DHT22;64374;51.482;7.408;2024-03-02T04:20:05;12.20;99.90
4356;DHT22;64374;51.482;7.408;2024-03-02T04:22:34;12.50;99.90
4356;DHT22;64374;51.482;7.408;2024-03-02T04:25:03;12.00;99.90
4356;DHT22;64374;51.482;7.408;2024-03-02T04:27:35;11.50;99.90
4356;DHT22;64374;51.482;7.408;2024-03-02T04:30:05;11.60;99.90
4356;DHT22;64374;51.482;7.408;2024-03-02T04:32:34;11.40;99.90
4356;DHT22;64374;51.482;7.408;2024-03-02T04:35:03;11.70;99.90
4356;DHT22;64374;51.482;7.408;2024-03-02T04:37:35;11.40;99.90
4356;DHT22;64374;51.482;7.408;2024-03-02T04:40:03;11.40;99.90
4356;DHT22;64374;51.482;7.408;2024-03-02T04:42:36;11.70;99.90
4356;DHT22;64374;51.482;7.408;2024-03-02T04:45:07;11.70;99.90
4356;DHT22;64374;51.482;7.408;2024-03-02T04:47:36;12.00;99.90
4356;DHT22;64374;51.482;7.408;2024-03-02T04:50:05;11.50;99.90
4356;DHT22;64374;51.482;7.408;2024-03-02T04:52:36;11.50;99.90
4356;DHT22;64374;51.482;7.408;2024-03-02T04:55:04;11.60;99.90
4356;DHT22;64374;51.482;7.408;2024-03-02T04:58:02;12.00;99.90
4356;DHT22;64374;51.482;7.408;2024-03-02T05:00:30;12.40;99.90
4356;DHT22;64374;51.482;7.408;2024-03-02T05:02:59;11.80;99.90
4356;DHT22;64374;51.482;7.408;2024-03-02T05:05:28;11.50;99.90
4356;DHT22;64374;51.482;7.408;2024-03-02T05:07:56;11.60;99.90
4356;DHT22;64374;51.482;7.408;2024-03-02T05:10:24;12.10;99.90
4356;DHT22;64374;51.482;7.408;2024-03-02T05:12:52;11.30;99.90
4356;DHT22;64374;51.482;7.408;2024-03-02T05:15:31;11.10;99.90
4356;DHT22;64374;51.482;7.408;2024-03-02T05:17:59;10.60;99.90
4356;DHT22;64374;51.482;7.408;2024-03-02T05:20:29;10.40;99.90
4356;DHT22;64374;51.482;7.408;2024-03-02T05:23:00;10.70;99.90
4356;DHT22;64374;51.482;7.408;2024-03-02T05:25:28;11.40;99.90
4356;DHT22;64374;51.482;7.408;2024-03-02T05:27:56;11.80;99.90
4356;DHT22;64374;51.482;7.408;2024-03-02T05:30:24;11.70;99.90
4356;DHT22;64374;51.482;7.408;2024-03-02T05:32:59;12.00;99.90
4356;DHT22;64374;51.482;7.408;2024-03-02T05:35:28;11.70;99.90
4356;DHT22;64374;51.482;7.408;2024-03-02T05:37:56;12.20;99.90
4356;DHT22;64374;51.482;7.408;2024-03-02T05:40:26;12.40;99.90
4356;DHT22;64374;51.482;7.408;2024-03-02T05:42:55;11.40;99.90
4356;DHT22;64374;51.482;7.408;2024-03-02T05:45:25;10.70;99.90
4356;DHT22;64374;51.482;7.408;2024-03-02T05:47:53;10.50;99.90
4356;DHT22;64374;51.482;7.408;2024-03-02T05:50:23;10.40;99.90
4356;DHT22;64374;51.482;7.408;2024-03-02T05:52:51;10.40;99.90
4356;DHT22;64374;51.482;7.408;2024-03-02T05:55:19;10.60;99.90
4356;DHT22;64374;51.482;7.408;2024-03-02T05:57:49;11.00;99.90
4356;DHT22;64374;51.482;7.408;2024-03-02T06:00:30;11.20;99.90
4356;DHT22;64374;51.482;7.408;2024-03-02T06:02:58;10.90;99.90
4356;DHT22;64374;51.482;7.408;2024-03-02T06:05:28;11.10;99.90
4356;DHT22;64374;51.482;7.408;2024-03-02T06:07:56;10.80;99.90
4356;DHT22;64374;51.482;7.408;2024-03-02T06:10:26;11.50;99.90
4356;DHT22;64374;51.482;7.408;2024-03-02T06:12:54;11.50;99.90
4356;DHT22;64374;51.482;7.408;2024-03-02T06:15:22;12.10;99.90
4356;DHT22;64374;51.482;7.408;2024-03-02T06:17:50;12.10;99.90
4356;DHT22;64374;51.482;7.408;2024-03-02T06:20:22;12.20;99.90
4356;DHT22;64374;51.482;7.408;2024-03-02T06:22:54;11.40;99.90
4356;DHT22;64374;51.482;7.408;2024-03-02T06:25:25;11.70;99.90
4356;DHT22;64374;51.482;7.408;2024-03-02T06:27:54;11.80;99.90
4356;DHT22;64374;51.482;7.408;2024-03-02T06:30:22;11.30;99.90
4356;DHT22;64374;51.482;7.408;2024-03-02T06:32:52;11.30;99.90
4356;DHT22;64374;51.482;7.408;2024-03-02T06:35:20;12.00;99.90
4356;DHT22;64374;51.482;7.408;2024-03-02T06:37:51;12.10;99.90
4356;DHT22;64374;51.482;7.408;2024-03-02T06:40:20;11.80;99.90
4356;DHT22;64374;51.482;7.408;2024-03-02T06:42:48;11.70;99.90
4356;DHT22;64374;51.482;7.408;2024-03-02T06:45:17;11.60;99.90
4356;DHT22;64374;51.482;7.408;2024-03-02T06:47:45;12.10;99.90
4356;DHT22;64374;51.482;7.408;2024-03-02T06:50:15;12.20;99.90
4356;DHT22;64374;51.482;7.408;2024-03-02T06:52:44;12.70;99.90
4356;DHT22;64374;51.482;7.408;2024-03-02T06:55:16;12.40;99.90
4356;DHT22;64374;51.482;7.408;2024-03-02T06:57:45;12.30;99.90
4356;DHT22;64374;51.482;7.408;2024-03-02T07:00:14;12.50;99.90
4356;DHT22;64374;51.482;7.408;2024-03-02T07:02:45;12.30;99.90
4356;DHT22;64374;51.482;7.408;2024-03-02T07:05:15;12.40;99.90
4356;DHT22;64374;51.482;7.408;2024-03-02T07:07:43;12.60;99.90
4356;DHT22;64374;51.482;7.408;2024-03-02T07:10:15;12.60;99.90
4356;DHT22;64374;51.482;7.408;2024-03-02T07:12:44;12.80;99.90
4356;DHT22;64374;51.482;7.408;2024-03-02T07:15:12;11.80;99.90
4356;DHT22;64374;51.482;7.408;2024-03-02T07:17:56;11.80;99.90
4356;DHT22;64374;51.482;7.408;2024-03-02T07:20:24;12.10;99.90
4356;DHT22;64374;51.482;7.408;2024-03-02T07:22:53;12.00;99.90
4356;DHT22;64374;51.482;7.408;2024-03-02T07:25:22;12.00;99.90
4356;DHT22;64374;51.482;7.408;2024-03-02T07:27:53;11.80;99.90
4356;DHT22;64374;51.482;7.408;2024-03-02T07:30:21;11.50;99.90
4356;DHT22;64374;51.482;7.408;2024-03-02T07:32:53;12.00;99.90
4356;DHT22;64374;51.482;7.408;2024-03-02T07:35:27;11.40;99.90
4356;DHT22;64374;51.482;7.408;2024-03-02T07:37:56;11.40;99.90
4356;DHT22;64374;51.482;7.408;2024-03-02T07:40:28;11.70;99.90
4356;DHT22;64374;51.482;7.408;2024-03-02T07:42:56;11.60;99.90
4356;DHT22;64374;51.482;7.408;2024-03-02T07:45:24;11.50;99.90
4356;DHT22;64374;51.482;7.408;2024-03-02T07:47:52;11.60;99.90
4356;DHT22;64374;51.482;7.408;2024-03-02T07:50:21;11.60;99.90
4356;DHT22;64374;51.482;7.408;2024-03-02T07:52:52;12.10;99.90
4356;DHT22;64374;51.482;7.408;2024-03-02T07:55:25;12.50;99.90
4356;DHT22;64374;51.482;7.408;2024-03-02T07:57:54;12.70;99.90
4356;DHT22;64374;51.482;7.408;2024-03-02T08:00:25;12.40;99.90
4356;DHT22;64374;51.482;7.408;2024-03-02T08:02:55;12.70;99.90
4356;DHT22;64374;51.482;7.408;2024-03-02T08:05:24;12.10;99.90
4356;DHT22;64374;51.482;7.408;2024-03-02T08:07:52;11.10;99.90
4356;DHT22;64374;51.482;7.408;2024-03-02T08:10:20;11.10;99.90
4356;DHT22;64374;51.482;7.408;2024-03-02T08:12:48;10.90;99.90
4356;DHT22;64374;51.482;7.408;2024-03-02T08:15:17;11.10;99.90
4356;DHT22;64374;51.482;7.408;2024-03-02T08:17:46;10.80;99.90
4356;DHT22;64374;51.482;7.408;2024-03-02T08:20:18;11.30;99.90
4356;DHT22;64374;51.482;7.408;2024-03-02T08:22:46;11.70;99.90
4356;DHT22;64374;51.482;7.408;2024-03-02T08:25:15;11.80;99.90
4356;DHT22;64374;51.482;7.408;2024-03-02T08:27:44;12.10;99.90
4356;DHT22;64374;51.482;7.408;2024-03-02T08:30:13;11.60;99.90
4356;DHT22;64374;51.482;7.408;2024-03-02T08:32:42;12.00;99.90
4356;DHT22;64374;51.482;7.408;2024-03-02T08:35:12;12.00;99.90
4356;DHT22;64374;51.482;7.408;2024-03-02T08:37:50;12.40;99.90
4356;DHT22;64374;51.482;7.408;2024-03-02T08:40:18;11.80;99.90
4356;DHT22;64374;51.482;7.408;2024-03-02T08:42:47;11.80;99.90
4356;DHT22;64374;51.482;7.408;2024-03-02T08:45:17;11.40;99.90
4356;DHT22;64374;51.482;7.408;2024-03-02T08:47:48;12.20;99.90
4356;DHT22;64374;51.482;7.408;2024-03-02T08:50:17;12.10;99.90
4356;DHT22;64374;51.482;7.408;2024-03-02T08:52:45;12.00;99.90
4356;DHT22;64374;51.482;7.408;2024-03-02T08:55:14;12.20;99.90
4356;DHT22;64374;51.482;7.408;2024-03-02T08:57:42;12.30;99.90
4356;DHT22;64374;51.482;7.408;2024-03-02T09:00:11;11.80;99.90
4356;DHT22;64374;51.482;7.408;2024-03-02T09:02:39;11.70;99.90
4356;DHT22;64374;51.482;7.408;2024-03-02T09:05:09;11.70;99.90
4356;DHT22;64374;51.482;7.408;2024-03-02T09:07:41;12.10;99.90
4356;DHT22;64374;51.482;7.408;2024-03-02T09:10:09;12.50;99.90
4356;DHT22;64374;51.482;7.408;2024-03-02T09:12:38;13.10;99.90
4356;DHT22;64374;51.482;7.408;2024-03-02T09:15:07;13.30;99.90
4356;DHT22;64374;51.482;7.408;2024-03-02T09:17:36;13.40;99.90
4356;DHT22;64374;51.482;7.408;2024-03-02T09:20:09;13.60;99.90
4356;DHT22;64374;51.482;7.408;2024-03-02T09:22:37;13.80;99.90
4356;DHT22;64374;51.482;7.408;2024-03-02T09:25:06;12.50;99.90
4356;DHT22;64374;51.482;7.408;2024-03-02T09:27:36;12.60;99.90
4356;DHT22;64374;51.482;7.408;2024-03-02T09:30:08;13.00;99.90
4356;DHT22;64374;51.482;7.408;2024-03-02T09:32:37;12.90;99.90
4356;DHT22;64374;51.482;7.408;2024-03-02T09:35:06;12.80;99.90
4356;DHT22;64374;51.482;7.408;2024-03-02T09:37:42;13.20;99.90
4356;DHT22;64374;51.482;7.408;2024-03-02T09:40:11;13.30;99.90
4356;DHT22;64374;51.482;7.408;2024-03-02T09:42:43;13.70;99.90
4356;DHT22;64374;51.482;7.408;2024-03-02T09:45:20;13.20;99.90
4356;DHT22;64374;51.482;7.408;2024-03-02T09:47:54;13.10;99.90
4356;DHT22;64374;51.482;7.408;2024-03-02T09:50:23;13.20;99.90
4356;DHT22;64374;51.482;7.408;2024-03-02T09:52:52;13.40;99.90
4356;DHT22;64374;51.482;7.408;2024-03-02T09:55:23;14.30;99.90
4356;DHT22;64374;51.482;7.408;2024-03-02T09:57:51;15.20;99.90
4356;DHT22;64374;51.482;7.408;2024-03-02T10:00:20;14.80;99.90
4356;DHT22;64374;51.482;7.408;2024-03-02T10:02:48;13.90;99.90
4356;DHT22;64374;51.482;7.408;2024-03-02T10:05:25;13.70;99.90
4356;DHT22;64374;51.482;7.408;2024-03-02T10:08:01;14.30;99.90
4356;DHT22;64374;51.482;7.408;2024-03-02T10:10:37;14.20;99.90
4356;DHT22;64374;51.482;7.408;2024-03-02T10:13:07;13.50;99.90
4356;DHT22;64374;51.482;7.408;2024-03-02T10:15:37;13.70;99.90
4356;DHT22;64374;51.482;7.408;2024-03-02T10:18:09;14.30;99.90
4356;DHT22;64374;51.482;7.408;2024-03-02T10:20:42;14.90;99.90
4356;DHT22;64374;51.482;7.408;2024-03-02T10:23:13;15.50;99.90
4356;DHT22;64374;51.482;7.408;2024-03-02T10:25:42;14.60;99.90
4356;DHT22;64374;51.482;7.408;2024-03-02T10:28:23;15.20;99.90
4356;DHT22;64374;51.482;7.408;2024-03-02T10:30:52;15.70;99.90
4356;DHT22;64374;51.482;7.408;2024-03-02T10:33:20;14.60;99.90
4356;DHT22;64374;51.482;7.408;2024-03-02T10:35:50;14.60;99.90
4356;DHT22;64374;51.482;7.408;2024-03-02T10:38:19;14.20;99.90
4356;DHT22;64374;51.482;7.408;2024-03-02T10:40:50;14.30;99.90
4356;DHT22;64374;51.482;7.408;2024-03-02T10:43:19;14.10;99.90
4356;DHT22;64374;51.482;7.408;2024-03-02T10:45:49;15.00;99.90
4356;DHT22;64374;51.482;7.408;2024-03-02T10:48:18;15.50;99.90
4356;DHT22;64374;51.482;7.408;2024-03-02T10:50:51;16.20;99.90
4356;DHT22;64374;51.482;7.408;2024-03-02T10:53:21;16.70;99.90
4356;DHT22;64374;51.482;7.408;2024-03-02T10:55:58;16.30;99.90
4356;DHT22;64374;51.482;7.408;2024-03-02T10:58:32;16.40;99.90
4356;DHT22;64374;51.482;7.408;2024-03-02T11:01:03;15.50;99.90
4356;DHT22;64374;51.482;7.408;2024-03-02T11:03:35;15.20;99.90
4356;DHT22;64374;51.482;7.408;2024-03-02T11:06:07;15.70;99.90
4356;DHT22;64374;51.482;7.408;2024-03-02T11:08:38;16.60;99.90
4356;DHT22;64374;51.482;7.408;2024-03-02T11:11:12;17.30;99.90
4356;DHT22;64374;51.482;7.408;2024-03-02T11:13:50;16.70;99.90
4356;DHT22;64374;51.482;7.408;2024-03-02T11:16:26;17.40;99.90
4356;DHT22;64374;51.482;7.408;2024-03-02T11:18:59;16.30;99.90
4356;DHT22;64374;51.482;7.408;2024-03-02T11:21:28;16.10;99.90
4356;DHT22;64374;51.482;7.408;2024-03-02T11:23:57;15.80;99.90
4356;DHT22;64374;51.482;7.408;2024-03-02T11:26:28;16.20;99.90
4356;DHT22;64374;51.482;7.408;2024-03-02T11:28:56;16.80;99.90
4356;DHT22;64374;51.482;7.408;2024-03-02T11:31:58;16.60;99.90
4356;DHT22;64374;51.482;7.408;2024-03-02T11:34:30;17.00;99.90
4356;DHT22;64374;51.482;7.408;2024-03-02T11:36:59;17.30;99.90
4356;DHT22;64374;51.482;7.408;2024-03-02T11:39:31;17.10;99.90
4356;DHT22;64374;51.482;7.408;2024-03-02T11:41:59;17.30;99.90
4356;DHT22;64374;51.482;7.408;2024-03-02T11:44:28;17.80;99.90
4356;DHT22;64374;51.482;7.408;2024-03-02T11:46:59;17.00;99.90
4356;DHT22;64374;51.482;7.408;2024-03-02T11:49:38;17.30;99.90
4356;DHT22;64374;51.482;7.408;2024-03-02T11:52:09;17.70;99.90
4356;DHT22;64374;51.482;7.408;2024-03-02T11:54:40;17.90;99.90
4356;DHT22;64374;51.482;7.408;2024-03-02T11:57:14;17.90;99.90
4356;DHT22;64374;51.482;7.408;2024-03-02T11:59:46;18.30;99.90
4356;DHT22;64374;51.482;7.408;2024-03-02T12:02:15;18.10;99.90
4356;DHT22;64374;51.482;7.408;2024-03-02T12:04:45;17.70;99.90
4356;DHT22;64374;51.482;7.408;2024-03-02T12:07:19;17.80;99.90
4356;DHT22;64374;51.482;7.408;2024-03-02T12:10:03;17.40;99.90
4356;DHT22;64374;51.482;7.408;2024-03-02T12:12:32;18.10;99.90
4356;DHT22;64374;51.482;7.408;2024-03-02T12:15:00;18.20;99.90
4356;DHT22;64374;51.482;7.408;2024-03-02T12:17:39;19.00;99.90
4356;DHT22;64374;51.482;7.408;2024-03-02T12:20:12;19.00;99.90
4356;DHT22;64374;51.482;7.408;2024-03-02T12:22:43;18.60;99.90
4356;DHT22;64374;51.482;7.408;2024-03-02T12:25:16;19.00;99.90
4356;DHT22;64374;51.482;7.408;2024-03-02T12:27:49;19.50;99.90
4356;DHT22;64374;51.482;7.408;2024-03-02T12:30:21;18.70;99.90
4356;DHT22;64374;51.482;7.408;2024-03-02T12:32:49;17.20;99.90
4356;DHT22;64374;51.482;7.408;2024-03-02T12:35:18;17.60;99.90
4356;DHT22;64374;51.482;7.408;2024-03-02T12:37:49;18.10;99.90
4356;DHT22;64374;51.482;7.408;2024-03-02T12:40:21;17.80;99.90
4356;DHT22;64374;51.482;7.408;2024-03-02T12:42:51;17.00;99.90
4356;DHT22;64374;51.482;7.408;2024-03-02T12:45:19;17.50;99.90
4356;DHT22;64374;51.482;7.408;2024-03-02T12:47:52;16.50;99.90
4356;DHT22;64374;51.482;7.408;2024-03-02T12:50:21;17.10;99.90
4356;DHT22;64374;51.482;7.408;2024-03-02T12:52:55;16.80;99.90
4356;DHT22;64374;51.482;7.408;2024-03-02T12:55:24;16.80;99.90
4356;DHT22;64374;51.482;7.408;2024-03-02T12:57:56;17.70;99.90
4356;DHT22;64374;51.482;7.408;2024-03-02T13:00:28;18.30;99.90
4356;DHT22;64374;51.482;7.408;2024-03-02T13:02:59;17.20;99.90
4356;DHT22;64374;51.482;7.408;2024-03-02T13:05:30;17.60;99.90
4356;DHT22;64374;51.482;7.408;2024-03-02T13:08:00;17.70;99.90
4356;DHT22;64374;51.482;7.408;2024-03-02T13:10:32;18.20;99.90
4356;DHT22;64374;51.482;7.408;2024-03-02T13:13:00;18.20;99.90
4356;DHT22;64374;51.482;7.408;2024-03-02T13:15:36;18.70;99.90
4356;DHT22;64374;51.482;7.408;2024-03-02T13:18:08;18.70;99.90
4356;DHT22;64374;51.482;7.408;2024-03-02T13:20:37;19.10;99.90
4356;DHT22;64374;51.482;7.408;2024-03-02T13:23:05;19.50;99.90
4356;DHT22;64374;51.482;7.408;2024-03-02T13:25:35;19.50;99.90
4356;DHT22;64374;51.482;7.408;2024-03-02T13:28:03;19.20;99.90
4356;DHT22;64374;51.482;7.408;2024-03-02T13:30:32;18.60;99.90
4356;DHT22;64374;51.482;7.408;2024-03-02T13:33:00;18.50;99.90
4356;DHT22;64374;51.482;7.408;2024-03-02T13:35:28;18.70;99.90
4356;DHT22;64374;51.482;7.408;2024-03-02T13:38:00;18.00;99.90
4356;DHT22;64374;51.482;7.408;2024-03-02T13:40:28;18.20;99.90
4356;DHT22;64374;51.482;7.408;2024-03-02T13:43:06;18.00;99.90
4356;DHT22;64374;51.482;7.408;2024-03-02T13:45:34;18.50;99.90
4356;DHT22;64374;51.482;7.408;2024-03-02T13:48:12;18.60;99.90
4356;DHT22;64374;51.482;7.408;2024-03-02T13:50:42;18.70;99.90
4356;DHT22;64374;51.482;7.408;2024-03-02T13:53:14;19.00;99.90
4356;DHT22;64374;51.482;7.408;2024-03-02T13:55:42;18.80;99.90
4356;DHT22;64374;51.482;7.408;2024-03-02T13:58:19;19.00;99.90
4356;DHT22;64374;51.482;7.408;2024-03-02T14:00:50;18.20;99.90
4356;DHT22;64374;51.482;7.408;2024-03-02T14:03:29;18.20;99.90
4356;DHT22;64374;51.482;7.408;2024-03-02T14:05:58;18.60;99.90
4356;DHT22;64374;51.482;7.408;2024-03-02T14:08:26;18.10;99.90
4356;DHT22;64374;51.482;7.408;2024-03-02T14:10:54;18.20;99.90
4356;DHT22;64374;51.482;7.408;2024-03-02T14:13:35;18.40;99.90
4356;DHT22;64374;51.482;7.408;2024-03-02T14:16:05;17.30;99.90
4356;DHT22;64374;51.482;7.408;2024-03-02T14:18:36;17.50;99.90
4356;DHT22;64374;51.482;7.408;2024-03-02T14:21:04;18.00;99.90
4356;DHT22;64374;51.482;7.408;2024-03-02T14:23:32;18.20;99.90
4356;DHT22;64374;51.482;7.408;2024-03-02T14:26:00;18.40;99.90
4356;DHT22;64374;51.482;7.408;2024-03-02T14:28:28;18.50;99.90
4356;DHT22;64374;51.482;7.408;2024-03-02T14:31:18;18.10;99.90
4356;DHT22;64374;51.482;7.408;2024-03-02T14:33:47;17.80;99.90
4356;DHT22;64374;51.482;7.408;2024-03-02T14:36:16;17.70;99.90
4356;DHT22;64374;51.482;7.408;2024-03-02T14:38:47;18.00;99.90
4356;DHT22;64374;51.482;7.408;2024-03-02T14:41:15;18.50;99.90
4356;DHT22;64374;51.482;7.408;2024-03-02T14:43:43;18.70;99.90
4356;DHT22;64374;51.482;7.408;2024-03-02T14:46:12;18.80;99.90
4356;DHT22;64374;51.482;7.408;2024-03-02T14:48:45;18.80;99.90
4356;DHT22;64374;51.482;7.408;2024-03-02T14:51:14;18.50;99.90
4356;DHT22;64374;51.482;7.408;2024-03-02T14:53:42;18.50;99.90
4356;DHT22;64374;51.482;7.408;2024-03-02T14:56:13;18.40;99.90
4356;DHT22;64374;51.482;7.408;2024-03-02T14:58:44;18.20;99.90
4356;DHT22;64374;51.482;7.408;2024-03-02T15:01:13;18.30;99.90
4356;DHT22;64374;51.482;7.408;2024-03-02T15:03:41;18.20;99.90
4356;DHT22;64374;51.482;7.408;2024-03-02T15:06:13;18.30;99.90
4356;DHT22;64374;51.482;7.408;2024-03-02T15:08:49;18.40;99.90
4356;DHT22;64374;51.482;7.408;2024-03-02T15:11:22;18.50;99.90
4356;DHT22;64374;51.482;7.408;2024-03-02T15:13:51;18.50;99.90
4356;DHT22;64374;51.482;7.408;2024-03-02T15:16:20;18.50;99.90
4356;DHT22;64374;51.482;7.408;2024-03-02T15:18:58;18.50;99.90
4356;DHT22;64374;51.482;7.408;2024-03-02T15:21:28;18.20;99.90
4356;DHT22;64374;51.482;7.408;2024-03-02T15:24:01;18.40;99.90
4356;DHT22;64374;51.482;7.408;2024-03-02T15:26:30;18.30;99.90
4356;DHT22;64374;51.482;7.408;2024-03-02T15:28:58;18.50;99.90
4356;DHT22;64374;51.482;7.408;2024-03-02T15:31:29;18.60;99.90
4356;DHT22;64374;51.482;7.408;2024-03-02T15:33:57;18.80;99.90
4356;DHT22;64374;51.482;7.408;2024-03-02T15:36:27;18.00;99.90
4356;DHT22;64374;51.482;7.408;2024-03-02T15:38:58;18.20;99.90
4356;DHT22;64374;51.482;7.408;2024-03-02T15:41:28;18.60;99.90
4356;DHT22;64374;51.482;7.408;2024-03-02T15:43:56;18.60;99.90
4356;DHT22;64374;51.482;7.408;2024-03-02T15:46:30;18.70;99.90
4356;DHT22;64374;51.482;7.408;2024-03-02T15:49:08;19.00;99.90
4356;DHT22;64374;51.482;7.408;2024-03-02T15:51:40;18.90;99.90
4356;DHT22;64374;51.482;7.408;2024-03-02T15:54:11;18.60;99.90
4356;DHT22;64374;51.482;7.408;2024-03-02T15:56:43;18.20;99.90
4356;DHT22;64374;51.482;7.408;2024-03-02T15:59:13;17.90;99.90
4356;DHT22;64374;51.482;7.408;2024-03-02T16:01:46;18.10;99.90
4356;DHT22;64374;51.482;7.408;2024-03-02T16:04:15;18.20;99.90
4356;DHT22;64374;51.482;7.408;2024-03-02T16:06:44;18.20;99.90